Time;durP1;ratioP1;P1;durP2;ratioP2;P2;SDS_P1;SDS_P2;PMS_P1;PMS_P2;Temp;Humidity;BMP_temperature;BMP_pressure;BME280_temperature;BME280_humidity;BME280_pressure;Samples;Min_cycle;Max_cycle;Signal;HPM_P1;HPM_P2
2023/06/29 00:00:22;;;;;;;;;;;17.90;99.90;;;;;;5093312;28;19920;-78
2023/06/29 00:02:48;;;;;;;;;;;17.90;99.90;;;;;;5093778;28;19963;-78
2023/06/29 00:05:14;;;;;;;;;;;17.90;99.90;;;;;;5076942;28;19927;-78
2023/06/29 00:07:41;;;;;;;;;;;18.00;99.90;;;;;;5094826;28;19920;-77
2023/06/29 00:10:07;;;;;;;;;;;18.00;99.90;;;;;;5076668;28;19939;-76
2023/06/29 00:12:33;;;;;;;;;;;18.00;99.90;;;;;;5093105;28;19930;-76
2023/06/29 00:14:59;;;;;;;;;;;18.00;99.90;;;;;;5093126;28;19920;-80
2023/06/29 00:17:24;;;;;;;;;;;18.00;99.90;;;;;;5092845;28;20004;-78
2023/06/29 00:19:50;;;;;;;;;;;18.00;99.90;;;;;;5076032;28;19920;-75
2023/06/29 00:22:16;;;;;;;;;;;18.00;99.90;;;;;;5093156;28;19951;-77
2023/06/29 00:24:43;;;;;;;;;;;18.00;99.90;;;;;;5093385;28;19920;-79
2023/06/29 00:27:12;;;;;;;;;;;18.00;99.90;;;;;;5093705;28;20400;-77
2023/06/29 00:29:41;;;;;;;;;;;18.00;99.90;;;;;;5093218;28;19996;-79
2023/06/29 00:32:07;;;;;;;;;;;17.90;99.90;;;;;;5094912;28;19930;-78
2023/06/29 00:34:33;;;;;;;;;;;18.00;99.90;;;;;;5092197;28;20254;-81
2023/06/29 00:36:58;;;;;;;;;;;18.00;99.90;;;;;;5093215;28;19931;-80
2023/06/29 00:39:24;;;;;;;;;;;18.00;99.90;;;;;;5092278;28;20030;-77
2023/06/29 00:41:53;;;;;;;;;;;18.00;99.90;;;;;;5093062;28;19920;-78
2023/06/29 00:44:19;;;;;;;;;;;17.90;99.90;;;;;;5092959;28;19955;-80
2023/06/29 00:46:44;;;;;;;;;;;17.90;99.90;;;;;;5093182;28;20368;-78
2023/06/29 00:49:10;;;;;;;;;;;17.90;99.90;;;;;;5092497;28;20007;-75
2023/06/29 00:51:36;;;;;;;;;;;17.90;99.90;;;;;;5076155;28;19916;-80
2023/06/29 00:54:01;;;;;;;;;;;17.90;99.90;;;;;;5093023;28;20349;-77
2023/06/29 00:56:29;;;;;;;;;;;17.90;99.90;;;;;;5075823;28;20357;-77
2023/06/29 00:58:54;;;;;;;;;;;17.90;99.90;;;;;;5075731;28;19923;-76
2023/06/29 01:01:20;;;;;;;;;;;17.90;99.90;;;;;;5091765;28;19923;-78
2023/06/29 01:03:46;;;;;;;;;;;17.90;99.90;;;;;;5092469;28;19920;-79
2023/06/29 01:06:14;;;;;;;;;;;17.90;99.90;;;;;;5092144;28;19939;-80
2023/06/29 01:08:42;;;;;;;;;;;17.90;99.90;;;;;;5092192;28;19959;-76
2023/06/29 01:11:08;;;;;;;;;;;17.90;99.90;;;;;;5092307;28;19963;-77
2023/06/29 01:13:35;;;;;;;;;;;17.80;99.90;;;;;;5074565;28;20414;-78
2023/06/29 01:16:01;;;;;;;;;;;17.80;99.90;;;;;;5092501;28;19937;-79
2023/06/29 01:18:28;;;;;;;;;;;17.90;99.90;;;;;;5092027;28;20324;-78
2023/06/29 01:20:55;;;;;;;;;;;17.90;99.90;;;;;;5092265;28;19916;-79
2023/06/29 01:23:24;;;;;;;;;;;17.80;99.90;;;;;;5074612;28;19919;-76
2023/06/29 01:25:51;;;;;;;;;;;17.80;99.90;;;;;;5092371;28;19923;-77
2023/06/29 01:28:17;;;;;;;;;;;17.80;99.90;;;;;;5091672;28;19924;-80
2023/06/29 01:30:49;;;;;;;;;;;17.80;99.90;;;;;;5093021;28;19922;-77
2023/06/29 01:33:24;;;;;;;;;;;17.90;99.90;;;;;;5059196;28;19920;-79
2023/06/29 01:36:13;;;;;;;;;;;17.80;99.90;;;;;;5091932;28;20284;-79
2023/06/29 01:38:51;;;;;;;;;;;17.90;99.90;;;;;;5062939;28;19920;-75
2023/06/29 01:41:17;;;;;;;;;;;17.80;99.90;;;;;;5125594;27;20135;-77
2023/06/29 01:43:43;;;;;;;;;;;17.80;99.90;;;;;;5074800;28;20356;-76
2023/06/29 01:46:09;;;;;;;;;;;17.90;99.90;;;;;;5125178;27;19967;-80
2023/06/29 01:48:36;;;;;;;;;;;17.90;99.90;;;;;;5108118;28;20645;-76
2023/06/29 01:51:01;;;;;;;;;;;17.90;99.90;;;;;;5091601;28;19920;-79
2023/06/29 01:53:28;;;;;;;;;;;17.90;99.90;;;;;;5090957;28;19926;-78
2023/06/29 01:55:53;;;;;;;;;;;17.90;99.90;;;;;;5074753;28;19922;-80
2023/06/29 01:58:19;;;;;;;;;;;17.90;99.90;;;;;;5091423;28;20023;-78
2023/06/29 02:00:45;;;;;;;;;;;17.90;99.90;;;;;;5125394;27;19924;-76
2023/06/29 02:03:10;;;;;;;;;;;17.90;99.90;;;;;;5091350;28;20368;-77
2023/06/29 02:05:36;;;;;;;;;;;17.90;99.90;;;;;;5091193;28;19943;-79
2023/06/29 02:08:02;;;;;;;;;;;17.90;99.90;;;;;;5091086;28;19942;-80
2023/06/29 02:10:27;;;;;;;;;;;17.90;99.90;;;;;;5091293;28;19916;-77
2023/06/29 02:12:53;;;;;;;;;;;17.90;99.90;;;;;;5090903;28;19973;-79
2023/06/29 02:15:18;;;;;;;;;;;17.90;99.90;;;;;;5057551;28;19998;-77
2023/06/29 02:17:44;;;;;;;;;;;17.90;99.90;;;;;;5090597;28;20313;-77
2023/06/29 02:20:10;;;;;;;;;;;17.90;99.90;;;;;;5091409;28;19965;-79
2023/06/29 02:22:36;;;;;;;;;;;17.90;99.90;;;;;;5090875;28;19919;-78
2023/06/29 02:25:01;;;;;;;;;;;17.90;99.90;;;;;;5091933;28;20436;-80
2023/06/29 02:27:27;;;;;;;;;;;17.90;99.90;;;;;;5090784;28;19963;-77
2023/06/29 02:29:52;;;;;;;;;;;17.90;99.90;;;;;;5074080;28;20409;-78
2023/06/29 02:32:18;;;;;;;;;;;17.90;99.90;;;;;;5090441;28;19916;-80
2023/06/29 02:34:43;;;;;;;;;;;17.90;99.90;;;;;;5090178;28;19972;-80
2023/06/29 02:37:09;;;;;;;;;;;17.90;99.90;;;;;;5090363;28;19924;-77
2023/06/29 02:39:35;;;;;;;;;;;17.90;99.90;;;;;;5090250;28;19919;-77
2023/06/29 02:42:00;;;;;;;;;;;17.90;99.90;;;;;;5090822;28;19920;-79
2023/06/29 02:44:26;;;;;;;;;;;17.90;99.90;;;;;;5090477;28;19920;-77
2023/06/29 02:46:51;;;;;;;;;;;17.90;99.90;;;;;;5090298;28;20010;-79
2023/06/29 02:49:17;;;;;;;;;;;17.90;99.90;;;;;;5090433;28;19919;-78
2023/06/29 02:51:42;;;;;;;;;;;17.90;99.90;;;;;;5090122;28;19920;-78
2023/06/29 02:54:08;;;;;;;;;;;17.90;99.90;;;;;;5090782;28;19952;-74
2023/06/29 02:56:33;;;;;;;;;;;17.90;99.90;;;;;;5090145;28;19927;-75
2023/06/29 02:58:59;;;;;;;;;;;17.90;99.90;;;;;;5090623;28;19981;-78
2023/06/29 03:01:25;;;;;;;;;;;17.90;99.90;;;;;;5090363;28;19920;-80
2023/06/29 03:03:58;;;;;;;;;;;18.00;99.90;;;;;;5090827;28;19994;-80
2023/06/29 03:06:23;;;;;;;;;;;17.90;99.90;;;;;;5090251;28;19997;-76
2023/06/29 03:08:49;;;;;;;;;;;17.90;99.90;;;;;;5089935;28;19959;-78
2023/06/29 03:11:15;;;;;;;;;;;17.90;99.90;;;;;;5090282;28;19916;-79
2023/06/29 03:13:40;;;;;;;;;;;17.90;99.90;;;;;;5089729;28;19962;-80
2023/06/29 03:16:06;;;;;;;;;;;18.00;99.90;;;;;;5090394;28;19920;-78
2023/06/29 03:18:32;;;;;;;;;;;18.00;99.90;;;;;;5089332;28;19924;-80
2023/06/29 03:20:57;;;;;;;;;;;18.00;99.90;;;;;;5072133;28;20308;-80
2023/06/29 03:23:23;;;;;;;;;;;18.00;99.90;;;;;;5089110;28;20337;-78
2023/06/29 03:25:48;;;;;;;;;;;18.00;99.90;;;;;;5089923;28;19923;-78
2023/06/29 03:28:14;;;;;;;;;;;18.00;99.90;;;;;;5090024;28;19916;-77
2023/06/29 03:30:39;;;;;;;;;;;18.00;99.90;;;;;;5089873;28;19978;-79
2023/06/29 03:33:05;;;;;;;;;;;18.00;99.90;;;;;;5090796;28;19926;-76
2023/06/29 03:35:30;;;;;;;;;;;18.00;99.90;;;;;;5090334;28;19920;-79
2023/06/29 03:37:56;;;;;;;;;;;18.00;99.90;;;;;;5090714;28;20023;-78
2023/06/29 03:40:22;;;;;;;;;;;18.10;99.90;;;;;;5090163;28;19932;-78
2023/06/29 03:42:47;;;;;;;;;;;18.10;99.90;;;;;;5089839;28;19959;-78
2023/06/29 03:45:13;;;;;;;;;;;18.00;99.90;;;;;;5090101;28;20331;-77
2023/06/29 03:47:38;;;;;;;;;;;18.10;99.90;;;;;;5089878;28;19919;-81
2023/06/29 03:50:04;;;;;;;;;;;18.10;99.90;;;;;;5073100;28;20450;-77
2023/06/29 03:52:30;;;;;;;;;;;18.10;99.90;;;;;;5089931;28;19916;-77
2023/06/29 03:54:55;;;;;;;;;;;18.20;99.90;;;;;;5072894;28;19961;-79
2023/06/29 03:57:21;;;;;;;;;;;18.20;99.90;;;;;;5089870;28;19924;-76
2023/06/29 03:59:49;;;;;;;;;;;18.20;99.90;;;;;;5090708;28;19920;-78
2023/06/29 04:02:15;;;;;;;;;;;18.20;99.90;;;;;;5090276;28;19915;-77
2023/06/29 04:04:40;;;;;;;;;;;18.30;99.90;;;;;;5090442;28;19927;-77
2023/06/29 04:07:06;;;;;;;;;;;18.30;99.90;;;;;;5090539;28;20044;-77
2023/06/29 04:09:32;;;;;;;;;;;18.30;99.90;;;;;;5092344;28;20297;-78
2023/06/29 04:11:57;;;;;;;;;;;18.30;99.90;;;;;;5077065;28;19920;-77
2023/06/29 04:14:23;;;;;;;;;;;18.30;99.90;;;;;;5094057;28;19924;-76
2023/06/29 04:16:48;;;;;;;;;;;18.40;99.90;;;;;;5093368;28;19923;-78
2023/06/29 04:19:14;;;;;;;;;;;18.40;99.90;;;;;;5093874;28;19916;-79
2023/06/29 04:21:40;;;;;;;;;;;18.40;99.90;;;;;;5093307;28;19999;-78
2023/06/29 04:24:07;;;;;;;;;;;18.40;99.90;;;;;;5093461;28;19923;-80
2023/06/29 04:26:33;;;;;;;;;;;18.40;99.90;;;;;;5094920;28;20579;-79
2023/06/29 04:28:59;;;;;;;;;;;18.50;99.90;;;;;;5093151;28;19916;-80
2023/06/29 04:31:26;;;;;;;;;;;18.50;99.90;;;;;;5076548;28;19961;-80
2023/06/29 04:33:52;;;;;;;;;;;18.50;99.90;;;;;;5059675;28;19967;-77
2023/06/29 04:36:17;;;;;;;;;;;18.50;99.90;;;;;;5093468;28;19977;-76
2023/06/29 04:38:44;;;;;;;;;;;18.60;99.90;;;;;;5076113;28;19924;-79
2023/06/29 04:41:09;;;;;;;;;;;18.70;99.90;;;;;;5076116;28;20002;-80
2023/06/29 04:43:36;;;;;;;;;;;18.70;99.90;;;;;;5093144;28;20006;-77
2023/06/29 04:46:02;;;;;;;;;;;18.80;99.90;;;;;;5093016;28;19920;-76
2023/06/29 04:48:36;;;;;;;;;;;18.90;99.90;;;;;;5093163;28;19916;-75
2023/06/29 04:51:05;;;;;;;;;;;19.00;99.90;;;;;;5092977;28;19920;-76
2023/06/29 04:53:32;;;;;;;;;;;19.00;99.90;;;;;;5092868;28;20300;-76
2023/06/29 04:55:58;;;;;;;;;;;19.20;99.90;;;;;;5092738;28;20063;-79
2023/06/29 04:58:23;;;;;;;;;;;19.50;99.90;;;;;;5110075;28;20019;-76
2023/06/29 05:00:49;;;;;;;;;;;19.40;99.90;;;;;;5093097;28;19942;-75
2023/06/29 05:03:14;;;;;;;;;;;19.40;99.90;;;;;;5126830;27;19919;-75
2023/06/29 05:05:40;;;;;;;;;;;19.60;99.90;;;;;;5126479;27;19922;-76
2023/06/29 05:08:07;;;;;;;;;;;19.70;99.90;;;;;;5126529;27;19916;-79
2023/06/29 05:10:33;;;;;;;;;;;19.70;99.90;;;;;;5092568;28;20003;-78
2023/06/29 05:12:58;;;;;;;;;;;19.70;99.90;;;;;;5092302;28;20369;-77
2023/06/29 05:15:24;;;;;;;;;;;19.60;99.90;;;;;;5093107;28;19924;-77
2023/06/29 05:17:49;;;;;;;;;;;19.60;99.90;;;;;;5092487;28;20344;-79
2023/06/29 05:20:17;;;;;;;;;;;19.60;99.90;;;;;;5092295;28;19988;-76
2023/06/29 05:22:43;;;;;;;;;;;19.50;99.90;;;;;;5075631;28;19965;-78
2023/06/29 05:25:08;;;;;;;;;;;19.50;99.90;;;;;;5092389;28;19916;-77
2023/06/29 05:27:34;;;;;;;;;;;19.50;99.90;;;;;;5092631;28;19923;-81
2023/06/29 05:30:00;;;;;;;;;;;19.50;99.90;;;;;;5092047;28;19927;-80
2023/06/29 05:32:26;;;;;;;;;;;19.60;99.90;;;;;;5092257;28;19920;-76
2023/06/29 05:34:52;;;;;;;;;;;19.60;99.90;;;;;;5092120;28;19923;-76
2023/06/29 05:37:17;;;;;;;;;;;19.70;99.90;;;;;;5092721;28;19920;-79
2023/06/29 05:39:43;;;;;;;;;;;19.70;99.90;;;;;;5091886;28;19924;-78
2023/06/29 05:42:08;;;;;;;;;;;19.80;99.90;;;;;;5092531;28;19924;-78
2023/06/29 05:44:35;;;;;;;;;;;19.90;99.90;;;;;;5092200;28;19916;-77
2023/06/29 05:47:00;;;;;;;;;;;20.00;99.90;;;;;;5091775;28;20333;-77
2023/06/29 05:49:26;;;;;;;;;;;20.10;99.90;;;;;;5091949;28;19920;-76
2023/06/29 05:51:57;;;;;;;;;;;20.20;99.90;;;;;;5075801;28;19942;-81
2023/06/29 05:54:23;;;;;;;;;;;20.30;99.90;;;;;;5091974;28;20369;-80
2023/06/29 05:56:48;;;;;;;;;;;20.50;99.90;;;;;;5091239;28;20364;-81
2023/06/29 05:59:14;;;;;;;;;;;20.50;99.90;;;;;;5091938;28;19927;-78
2023/06/29 06:01:39;;;;;;;;;;;20.50;99.90;;;;;;5091920;28;19920;-76
2023/06/29 06:04:05;;;;;;;;;;;20.60;99.90;;;;;;5091544;28;19916;-81
2023/06/29 06:06:31;;;;;;;;;;;20.60;99.90;;;;;;5074467;28;20360;-78
2023/06/29 06:08:58;;;;;;;;;;;20.70;99.90;;;;;;5091401;28;19924;-78
2023/06/29 06:11:24;;;;;;;;;;;20.80;99.90;;;;;;5091782;28;19924;-79
2023/06/29 06:13:50;;;;;;;;;;;21.00;99.90;;;;;;5091482;28;19916;-79
2023/06/29 06:16:15;;;;;;;;;;;21.10;99.90;;;;;;5092515;28;19916;-82
2023/06/29 06:18:41;;;;;;;;;;;21.20;99.90;;;;;;5091821;28;19999;-81
2023/06/29 06:21:06;;;;;;;;;;;21.30;99.90;;;;;;5074463;28;19924;-77
2023/06/29 06:23:32;;;;;;;;;;;21.30;99.90;;;;;;5074728;28;19916;-76
2023/06/29 06:25:58;;;;;;;;;;;21.30;99.90;;;;;;5091706;28;19916;-79
2023/06/29 06:28:26;;;;;;;;;;;21.30;99.90;;;;;;5093187;28;20323;-79
2023/06/29 06:30:52;;;;;;;;;;;21.30;99.90;;;;;;5091003;28;19916;-77
2023/06/29 06:33:17;;;;;;;;;;;21.30;99.90;;;;;;5091482;28;19923;-82
2023/06/29 06:35:44;;;;;;;;;;;21.30;99.90;;;;;;5091779;28;19965;-81
2023/06/29 06:38:09;;;;;;;;;;;21.30;99.90;;;;;;5091437;28;19955;-80
2023/06/29 06:40:35;;;;;;;;;;;21.30;99.90;;;;;;5092090;28;20011;-79
2023/06/29 06:43:00;;;;;;;;;;;21.30;99.90;;;;;;5057949;28;19969;-84
2023/06/29 06:45:26;;;;;;;;;;;21.30;99.90;;;;;;5091375;28;20319;-79
2023/06/29 06:47:51;;;;;;;;;;;21.40;99.90;;;;;;5091254;28;19916;-80
2023/06/29 06:50:20;;;;;;;;;;;21.50;99.90;;;;;;5092855;28;19923;-78
2023/06/29 06:52:46;;;;;;;;;;;21.50;99.90;;;;;;5074701;28;19916;-79
2023/06/29 06:55:12;;;;;;;;;;;21.50;99.90;;;;;;5074697;28;19965;-78
2023/06/29 06:57:38;;;;;;;;;;;21.50;99.90;;;;;;5108810;28;19923;-79
2023/06/29 07:00:04;;;;;;;;;;;21.50;99.90;;;;;;5091511;28;20026;-80
2023/06/29 07:02:30;;;;;;;;;;;21.60;99.90;;;;;;5074973;28;19920;-82
2023/06/29 07:04:55;;;;;;;;;;;21.60;99.90;;;;;;5074321;28;19927;-76
2023/06/29 07:07:21;;;;;;;;;;;21.70;99.90;;;;;;5074954;28;19916;-78
2023/06/29 07:09:47;;;;;;;;;;;21.70;99.90;;;;;;5074372;28;20361;-82
2023/06/29 07:12:14;;;;;;;;;;;21.70;99.90;;;;;;5125358;27;19916;-81
2023/06/29 07:14:39;;;;;;;;;;;21.80;99.90;;;;;;5092748;28;20002;-81
2023/06/29 07:17:06;;;;;;;;;;;21.80;99.90;;;;;;5074648;28;19974;-83
2023/06/29 07:19:31;;;;;;;;;;;21.80;99.90;;;;;;5091855;28;19985;-78
2023/06/29 07:21:57;;;;;;;;;;;21.80;99.90;;;;;;5091614;28;19920;-76
2023/06/29 07:24:23;;;;;;;;;;;21.80;99.90;;;;;;5091511;28;20269;-79
2023/06/29 07:26:48;;;;;;;;;;;21.80;99.90;;;;;;5091127;28;19916;-78
2023/06/29 07:29:14;;;;;;;;;;;21.80;99.90;;;;;;5074110;28;19923;-79
2023/06/29 07:31:40;;;;;;;;;;;21.80;99.90;;;;;;5091410;28;19920;-82
2023/06/29 07:34:05;;;;;;;;;;;21.80;99.90;;;;;;5090868;28;20350;-83
2023/06/29 07:36:31;;;;;;;;;;;21.80;99.90;;;;;;5091762;28;20610;-79
2023/06/29 07:38:57;;;;;;;;;;;21.70;99.90;;;;;;5107705;28;20385;-80
2023/06/29 07:41:22;;;;;;;;;;;21.80;99.90;;;;;;5090738;28;19964;-77
2023/06/29 07:43:50;;;;;;;;;;;21.80;99.90;;;;;;5092141;28;19944;-77
2023/06/29 07:46:16;;;;;;;;;;;21.80;99.90;;;;;;5094838;28;20003;-82
2023/06/29 07:48:42;;;;;;;;;;;21.70;99.90;;;;;;5095725;28;20332;-81
2023/06/29 07:51:08;;;;;;;;;;;21.60;99.90;;;;;;5094562;28;20367;-78
2023/06/29 07:53:34;;;;;;;;;;;21.50;99.90;;;;;;5095265;28;19923;-82
2023/06/29 07:55:59;;;;;;;;;;;21.50;99.90;;;;;;5094880;28;20280;-76
2023/06/29 07:58:26;;;;;;;;;;;21.40;99.90;;;;;;5061173;28;19943;-81
2023/06/29 08:00:52;;;;;;;;;;;21.40;99.90;;;;;;5096704;28;19922;-77
2023/06/29 08:03:21;;;;;;;;;;;21.50;99.90;;;;;;5096313;28;19979;-80
2023/06/29 08:05:46;;;;;;;;;;;21.50;99.90;;;;;;5094568;28;19974;-77
2023/06/29 08:08:12;;;;;;;;;;;21.40;99.90;;;;;;5094975;28;19965;-82
2023/06/29 08:10:43;;;;;;;;;;;21.40;99.90;;;;;;5095734;28;20265;-78
2023/06/29 08:13:09;;;;;;;;;;;21.30;99.90;;;;;;5095278;28;19919;-79
2023/06/29 08:15:34;;;;;;;;;;;21.40;99.90;;;;;;5078070;28;19970;-78
2023/06/29 08:18:00;;;;;;;;;;;21.50;99.90;;;;;;5094477;28;19931;-83
2023/06/29 08:20:25;;;;;;;;;;;21.50;99.90;;;;;;5094615;28;20491;-82
2023/06/29 08:22:52;;;;;;;;;;;21.70;99.90;;;;;;5077989;28;19923;-83
2023/06/29 08:25:21;;;;;;;;;;;21.80;99.90;;;;;;5094437;28;19916;-79
2023/06/29 08:27:46;;;;;;;;;;;21.90;99.90;;;;;;5094340;28;19955;-83
2023/06/29 08:30:12;;;;;;;;;;;21.90;99.90;;;;;;5094121;28;20387;-79
2023/06/29 08:32:38;;;;;;;;;;;22.20;99.90;;;;;;5093798;28;19926;-82
2023/06/29 08:35:03;;;;;;;;;;;22.30;99.90;;;;;;5077185;28;20301;-80
2023/06/29 08:37:29;;;;;;;;;;;22.50;99.90;;;;;;5094788;28;19995;-84
2023/06/29 08:39:55;;;;;;;;;;;22.60;99.90;;;;;;5094222;28;20410;-79
2023/06/29 08:42:23;;;;;;;;;;;22.80;99.90;;;;;;5077266;28;19927;-82
2023/06/29 08:44:49;;;;;;;;;;;23.00;99.90;;;;;;5094790;28;19919;-78
2023/06/29 08:47:16;;;;;;;;;;;23.10;99.90;;;;;;5094439;28;19988;-81
2023/06/29 08:49:42;;;;;;;;;;;23.20;99.90;;;;;;5093902;28;19966;-78
2023/06/29 08:52:11;;;;;;;;;;;23.20;99.90;;;;;;5095547;28;19927;-80
2023/06/29 08:54:37;;;;;;;;;;;23.20;99.90;;;;;;5093404;28;19920;-83
2023/06/29 08:57:04;;;;;;;;;;;23.30;99.90;;;;;;5093640;28;19916;-81
2023/06/29 08:59:29;;;;;;;;;;;23.30;99.90;;;;;;5093710;28;19916;-83
2023/06/29 09:02:07;;;;;;;;;;;23.30;99.90;;;;;;5093691;28;19924;-79
2023/06/29 09:04:32;;;;;;;;;;;23.40;99.90;;;;;;5094027;28;19916;-80
2023/06/29 09:06:58;;;;;;;;;;;23.40;99.90;;;;;;5128370;27;20281;-80
2023/06/29 09:09:24;;;;;;;;;;;23.30;99.90;;;;;;5094349;28;20014;-81
2023/06/29 09:11:51;;;;;;;;;;;23.30;99.90;;;;;;5093834;28;20241;-82
2023/06/29 09:14:16;;;;;;;;;;;23.20;99.90;;;;;;5076895;28;19927;-77
2023/06/29 09:16:52;;;;;;;;;;;23.20;99.90;;;;;;5076573;28;19916;-80
2023/06/29 09:19:18;;;;;;;;;;;23.10;99.90;;;;;;5093346;28;19967;-79
2023/06/29 09:21:45;;;;;;;;;;;23.10;99.90;;;;;;5093941;28;19958;-82
2023/06/29 09:24:11;;;;;;;;;;;23.20;99.90;;;;;;5076822;28;19916;-82
2023/06/29 09:26:37;;;;;;;;;;;23.00;99.90;;;;;;5093516;28;20717;-80
2023/06/29 09:29:03;;;;;;;;;;;23.10;99.90;;;;;;5093314;28;19920;-76
2023/06/29 09:31:33;;;;;;;;;;;23.20;99.90;;;;;;5093536;28;19916;-84
2023/06/29 09:34:17;;;;;;;;;;;23.30;99.90;;;;;;5060535;28;19968;-79
2023/06/29 09:36:44;;;;;;;;;;;23.40;99.90;;;;;;5093343;28;19916;-83
2023/06/29 09:39:10;;;;;;;;;;;23.50;99.90;;;;;;5093115;28;19928;-81
2023/06/29 09:41:45;;;;;;;;;;;23.70;99.90;;;;;;5092792;28;19928;-82
2023/06/29 09:44:13;;;;;;;;;;;23.70;99.90;;;;;;5075910;28;19970;-80
2023/06/29 09:46:41;;;;;;;;;;;23.50;99.90;;;;;;5076598;28;19926;-78
2023/06/29 09:49:08;;;;;;;;;;;23.60;99.90;;;;;;5093232;28;19919;-82
2023/06/29 09:51:33;;;;;;;;;;;23.50;99.90;;;;;;5093371;28;19920;-84
2023/06/29 09:54:02;;;;;;;;;;;23.40;99.90;;;;;;5093400;28;20372;-78
2023/06/29 09:56:29;;;;;;;;;;;23.30;99.90;;;;;;5076120;28;19927;-76
2023/06/29 09:58:56;;;;;;;;;;;23.20;99.90;;;;;;5093167;28;19924;-79
2023/06/29 10:01:22;;;;;;;;;;;23.00;99.90;;;;;;5127026;27;19916;-80
2023/06/29 10:03:47;;;;;;;;;;;23.00;99.90;;;;;;5110370;28;19927;-80
2023/06/29 10:06:15;;;;;;;;;;;23.00;99.90;;;;;;5074327;28;19919;-84
2023/06/29 10:08:42;;;;;;;;;;;23.00;99.90;;;;;;5092721;28;19927;-80
2023/06/29 10:11:14;;;;;;;;;;;23.00;99.90;;;;;;5127454;27;20394;-80
2023/06/29 10:13:43;;;;;;;;;;;23.10;99.90;;;;;;5092902;28;20254;-82
2023/06/29 10:16:09;;;;;;;;;;;23.00;99.90;;;;;;5092298;28;20238;-84
2023/06/29 10:18:38;;;;;;;;;;;23.00;99.90;;;;;;5092110;28;20281;-78
2023/06/29 10:21:04;;;;;;;;;;;22.90;99.90;;;;;;5092628;28;20254;-81
2023/06/29 10:23:30;;;;;;;;;;;22.90;99.90;;;;;;5092075;28;19926;-84
2023/06/29 10:25:55;;;;;;;;;;;22.80;99.90;;;;;;5092247;28;19916;-81
2023/06/29 10:28:21;;;;;;;;;;;22.70;99.90;;;;;;5092578;28;19946;-77
2023/06/29 10:30:50;;;;;;;;;;;22.60;99.90;;;;;;5092096;28;20365;-83
2023/06/29 10:33:22;;;;;;;;;;;22.40;99.90;;;;;;5125816;27;19923;-80
2023/06/29 10:35:56;;;;;;;;;;;22.30;99.90;;;;;;5094074;28;19973;-80
2023/06/29 10:38:26;;;;;;;;;;;22.20;99.90;;;;;;5091479;28;19932;-81
2023/06/29 10:40:51;;;;;;;;;;;22.10;99.90;;;;;;5092295;28;19920;-82
2023/06/29 10:43:17;;;;;;;;;;;22.00;99.90;;;;;;5074787;28;19922;-78
2023/06/29 10:45:43;;;;;;;;;;;21.70;99.90;;;;;;5092161;28;19915;-81
2023/06/29 10:48:10;;;;;;;;;;;21.50;99.90;;;;;;5091924;28;20008;-77
2023/06/29 10:50:40;;;;;;;;;;;21.30;99.90;;;;;;5092083;28;19916;-84
2023/06/29 10:53:07;;;;;;;;;;;21.10;99.90;;;;;;5075222;28;19916;-77
2023/06/29 10:55:41;;;;;;;;;;;20.90;99.90;;;;;;5092038;28;19916;-81
2023/06/29 10:58:23;;;;;;;;;;;20.80;99.90;;;;;;5091693;28;19924;-77
2023/06/29 11:00:51;;;;;;;;;;;20.80;99.90;;;;;;5091814;28;19923;-83
2023/06/29 11:03:18;;;;;;;;;;;20.90;99.90;;;;;;5074594;28;20014;-79
2023/06/29 11:05:46;;;;;;;;;;;21.00;99.90;;;;;;5092020;28;19916;-80
2023/06/29 11:08:12;;;;;;;;;;;21.20;99.90;;;;;;5091650;28;19916;-79
2023/06/29 11:10:37;;;;;;;;;;;21.40;99.90;;;;;;5125874;27;19919;-77
2023/06/29 11:13:06;;;;;;;;;;;21.70;99.90;;;;;;5092272;28;19920;-80
2023/06/29 11:15:33;;;;;;;;;;;22.00;99.90;;;;;;5075223;28;19927;-80
2023/06/29 11:18:01;;;;;;;;;;;22.30;99.90;;;;;;5092161;28;19931;-76
2023/06/29 11:20:27;;;;;;;;;;;22.50;99.90;;;;;;5092212;28;19939;-79
2023/06/29 11:22:59;;;;;;;;;;;22.70;99.90;;;;;;5076962;28;20281;-77
2023/06/29 11:25:26;;;;;;;;;;;22.70;99.90;;;;;;5091889;28;19915;-83
2023/06/29 11:27:54;;;;;;;;;;;22.80;99.90;;;;;;5093336;28;19960;-79
2023/06/29 11:30:20;;;;;;;;;;;22.80;99.90;;;;;;5109497;28;19959;-77
2023/06/29 11:32:48;;;;;;;;;;;23.00;99.90;;;;;;5091858;28;20283;-77
2023/06/29 11:35:13;;;;;;;;;;;23.00;99.90;;;;;;5091363;28;19916;-79
2023/06/29 11:37:39;;;;;;;;;;;22.90;99.90;;;;;;5092359;28;20007;-80
2023/06/29 11:40:14;;;;;;;;;;;22.90;99.90;;;;;;5091942;28;19922;-80
2023/06/29 11:42:46;;;;;;;;;;;22.90;99.90;;;;;;5075767;28;20387;-77
2023/06/29 11:45:13;;;;;;;;;;;22.90;99.90;;;;;;5091635;28;19927;-81
2023/06/29 11:47:39;;;;;;;;;;;22.70;99.90;;;;;;5092185;28;19920;-79
2023/06/29 11:50:07;;;;;;;;;;;22.60;99.90;;;;;;5093375;28;20357;-80
2023/06/29 11:52:33;;;;;;;;;;;22.60;99.90;;;;;;5091788;28;19920;-80
2023/06/29 11:54:59;;;;;;;;;;;22.70;99.90;;;;;;5074291;28;19993;-82
2023/06/29 11:57:25;;;;;;;;;;;23.10;99.90;;;;;;5091085;28;19920;-83
2023/06/29 11:59:51;;;;;;;;;;;23.60;99.90;;;;;;5091106;28;19916;-80
2023/06/29 12:02:18;;;;;;;;;;;24.00;99.90;;;;;;5090501;28;19920;-82
2023/06/29 12:04:55;;;;;;;;;;;24.30;99.90;;;;;;5074270;28;20364;-81
2023/06/29 12:07:33;;;;;;;;;;;24.50;99.90;;;;;;5074221;28;19945;-80
2023/06/29 12:10:02;;;;;;;;;;;24.50;99.90;;;;;;5091156;28;19916;-82
2023/06/29 12:12:27;;;;;;;;;;;24.30;99.90;;;;;;5092502;28;19924;-79
2023/06/29 12:14:53;;;;;;;;;;;24.20;99.90;;;;;;5074186;28;19916;-78
2023/06/29 12:17:19;;;;;;;;;;;24.20;99.90;;;;;;5089846;28;20288;-82
2023/06/29 12:19:50;;;;;;;;;;;24.10;99.90;;;;;;5090771;28;19927;-78
2023/06/29 12:22:16;;;;;;;;;;;24.10;99.90;;;;;;5073607;28;19943;-77
2023/06/29 12:24:47;;;;;;;;;;;24.10;99.90;;;;;;5090595;28;20368;-77
2023/06/29 12:27:16;;;;;;;;;;;24.30;99.90;;;;;;5124157;28;19976;-78
2023/06/29 12:29:41;;;;;;;;;;;24.60;99.90;;;;;;5074967;28;19924;-81
2023/06/29 12:32:07;;;;;;;;;;;25.00;99.90;;;;;;5111377;28;19986;-78
2023/06/29 12:34:32;;;;;;;;;;;25.20;99.90;;;;;;5127880;27;19970;-76
2023/06/29 12:36:58;;;;;;;;;;;25.30;99.90;;;;;;5077326;28;19969;-83
2023/06/29 12:39:24;;;;;;;;;;;25.30;99.90;;;;;;5093669;28;19928;-81
2023/06/29 12:41:50;;;;;;;;;;;25.60;99.90;;;;;;5110748;28;20440;-79
2023/06/29 12:44:19;;;;;;;;;;;25.80;99.90;;;;;;5095207;28;20353;-79
2023/06/29 12:46:44;;;;;;;;;;;26.10;99.90;;;;;;5093658;28;19920;-78
2023/06/29 12:49:10;;;;;;;;;;;26.60;99.90;;;;;;5093718;28;19923;-82
2023/06/29 12:51:36;;;;;;;;;;;26.90;99.90;;;;;;5093883;28;20010;-78
2023/06/29 12:54:09;;;;;;;;;;;26.90;99.90;;;;;;5078241;28;19996;-81
2023/06/29 12:56:35;;;;;;;;;;;26.70;99.90;;;;;;5093574;28;19995;-83
2023/06/29 12:59:00;;;;;;;;;;;26.00;99.90;;;;;;5110668;28;20007;-83
2023/06/29 13:01:27;;;;;;;;;;;25.90;99.90;;;;;;5093954;28;20284;-83
2023/06/29 13:03:53;;;;;;;;;;;25.70;99.90;;;;;;5094124;28;20558;-81
2023/06/29 13:06:18;;;;;;;;;;;25.80;99.90;;;;;;5110205;28;19919;-77
2023/06/29 13:08:44;;;;;;;;;;;26.00;99.90;;;;;;5110767;28;20033;-82
2023/06/29 13:11:09;;;;;;;;;;;26.10;99.90;;;;;;5076612;28;20662;-80
2023/06/29 13:13:35;;;;;;;;;;;26.00;99.90;;;;;;5093467;28;20395;-78
2023/06/29 13:16:00;;;;;;;;;;;26.00;99.90;;;;;;5093778;28;20399;-77
2023/06/29 13:18:26;;;;;;;;;;;26.00;99.90;;;;;;5099211;28;19920;-81
2023/06/29 13:20:52;;;;;;;;;;;26.30;99.90;;;;;;5094283;28;20404;-81
2023/06/29 13:23:17;;;;;;;;;;;26.90;99.90;;;;;;5093424;28;19942;-83
2023/06/29 13:25:43;;;;;;;;;;;27.30;99.90;;;;;;5093314;28;19916;-79
2023/06/29 13:28:08;;;;;;;;;;;27.30;99.90;;;;;;5093235;28;20440;-78
2023/06/29 13:30:35;;;;;;;;;;;27.20;99.90;;;;;;5093346;28;19998;-79
2023/06/29 13:33:01;;;;;;;;;;;26.80;99.90;;;;;;5093435;28;19958;-82
2023/06/29 13:35:26;;;;;;;;;;;26.50;99.90;;;;;;5092729;28;19955;-82
2023/06/29 13:37:52;;;;;;;;;;;26.20;99.90;;;;;;5093316;28;19920;-78
2023/06/29 13:40:17;;;;;;;;;;;25.90;99.90;;;;;;5092300;28;19981;-82
2023/06/29 13:42:43;;;;;;;;;;;25.60;99.90;;;;;;5092384;28;19916;-83
2023/06/29 13:45:09;;;;;;;;;;;25.10;99.90;;;;;;5093260;28;19919;-78
2023/06/29 13:47:38;;;;;;;;;;;24.60;99.90;;;;;;5092803;28;20069;-82
2023/06/29 13:50:04;;;;;;;;;;;24.20;99.90;;;;;;5093223;28;20390;-75
2023/06/29 13:52:30;;;;;;;;;;;23.90;99.90;;;;;;5092497;28;20018;-81
2023/06/29 13:54:55;;;;;;;;;;;23.60;99.90;;;;;;5093006;28;19916;-81
2023/06/29 13:57:21;;;;;;;;;;;23.50;99.90;;;;;;5075772;28;19984;-79
2023/06/29 13:59:47;;;;;;;;;;;23.40;99.90;;;;;;5075930;28;19920;-78
2023/06/29 14:02:12;;;;;;;;;;;23.40;99.90;;;;;;5093101;28;20007;-80
2023/06/29 14:04:44;;;;;;;;;;;23.50;99.90;;;;;;5093274;28;20327;-81
2023/06/29 14:07:09;;;;;;;;;;;23.50;99.90;;;;;;5092446;28;19916;-78
2023/06/29 14:09:35;;;;;;;;;;;23.50;99.90;;;;;;5092468;28;20022;-81
2023/06/29 14:12:00;;;;;;;;;;;23.60;99.90;;;;;;5092812;28;20258;-76